Viborg, SD (57070)

6:09 PM CDT on September 23, 2014 (GMT -0500)
Turkey Ridge | Change Station
CLOSE
Current Station
Personal Weather Station
Location: Freeman, SD
Elevation: 1644 ft
Nearby Weather Stations

Elev 1644 ft 43.26 °N, 97.36 °W | Updated 9 minutes ago

Overcast
Overcast
60.6 °F
Feels Like 60.6 °F
N
11.0
Wind Variable Wind from SE
Gusts 24.0 mph

Today
High -- | Low -- °F
--% Chance of Precip.
Yesterday
High -- | Low -- °F
Precip. -- in
7:16 AM 7:23 PM
Waning Crescent, 0% visible
Pressure 30.01 in
Visibility 10.0 miles
Clouds Overcast 4100 ft
Dew Point 57 °F
Humidity 89%
Rainfall 0.25 in
Snow Depth 0 in
UV 0 out of 12
Pollen 1.50 out of 12
Air Quality Not available.
Flu Activity Not available.
METAR KYKN 232255Z AUTO 14010KT 10SM OVC041 17/14 A3001 RMK AO1

More Conditions Fewer Conditions

Pressure 30.01 in
Visibility 10.0 miles
Clouds Overcast 4100 ft
Dew Point 57 °F
Humidity 89%
Rainfall 0.25 in
Snow Depth 0 in
UV 0 out of 12
Pollen 1.50 out of 12
Air Quality Not available.
Flu Activity Not available.
METAR KYKN 232255Z AUTO 14010KT 10SM OVC041 17/14 A3001 RMK AO1

More Conditions Fewer Conditions

10-Day Weather Forecast

Almanac

Astronomy

Sep. 23, 2014 Rise Set
Actual Time 7:16 AM CDT 7:23 PM CDT
Civil Twilight 6:48 AM CDT 7:52 PM CDT
Nautical Twilight 6:15 AM CDT 8:25 PM CDT
Astronomical Twilight 5:41 AM CDT 8:59 PM CDT
Moon 6:42 AM CDT 7:02 PM CDT
Length of Visible Light 13h 03m
Length of Day
12h 07m
Tomorrow will be 2m 55s shorter.
Waning Crescent, 0% of the Moon is Illuminated
Today
Waning Crescent
Sep 24
New
Oct 1
First Quarter
Oct 8
Full
Oct 15
Last Quarter

Today's Extremes

State Highs State Lows

Community

WunderPhotos

Upload Photos

1,755,824 photos uploaded!

WunderBlogs® & News

Nearby

Snow Depth

Station Depth Elevation
Blind Park 0 in 6890 ft

Earthquake Activity

City Distance Mag. Time & Date
No recent earthquake activity has been reported nearby.
Minimum magnitude displayed is 2.5.

Coastal Water Temperatures

Place Temperature
No Stations Reporting

Nearby Weather Stations